sensor_id;sensor_type;location;lat;lon;timestamp;temperature;humidity
73777;DHT22;62088;50.240;2.696;2023-04-16T00:02:07;7.30;76.70
73777;DHT22;62088;50.240;2.696;2023-04-16T00:04:35;7.30;76.70
73777;DHT22;62088;50.240;2.696;2023-04-16T00:07:02;7.30;76.70
73777;DHT22;62088;50.240;2.696;2023-04-16T00:09:29;7.30;76.70
73777;DHT22;62088;50.240;2.696;2023-04-16T00:11:56;7.20;76.70
73777;DHT22;62088;50.240;2.696;2023-04-16T00:14:23;7.20;76.60
73777;DHT22;62088;50.240;2.696;2023-04-16T00:16:50;7.20;76.70
73777;DHT22;62088;50.240;2.696;2023-04-16T00:19:18;7.20;76.80
73777;DHT22;62088;50.240;2.696;2023-04-16T00:21:45;7.10;76.80
73777;DHT22;62088;50.240;2.696;2023-04-16T00:24:12;7.10;76.90
73777;DHT22;62088;50.240;2.696;2023-04-16T00:26:39;7.10;77.00
73777;DHT22;62088;50.240;2.696;2023-04-16T00:29:06;7.00;77.10
73777;DHT22;62088;50.240;2.696;2023-04-16T00:31:34;7.10;77.30
73777;DHT22;62088;50.240;2.696;2023-04-16T00:34:02;7.10;77.50
73777;DHT22;62088;50.240;2.696;2023-04-16T00:36:30;7.10;77.60
73777;DHT22;62088;50.240;2.696;2023-04-16T00:38:57;7.00;77.70
73777;DHT22;62088;50.240;2.696;2023-04-16T00:41:24;7.10;77.80
73777;DHT22;62088;50.240;2.696;2023-04-16T00:43:52;7.00;77.90
73777;DHT22;62088;50.240;2.696;2023-04-16T00:46:21;7.00;78.00
73777;DHT22;62088;50.240;2.696;2023-04-16T00:48:50;7.00;78.10
73777;DHT22;62088;50.240;2.696;2023-04-16T00:51:18;7.00;78.10
73777;DHT22;62088;50.240;2.696;2023-04-16T00:53:47;7.10;78.20
73777;DHT22;62088;50.240;2.696;2023-04-16T00:56:14;7.10;78.20
73777;DHT22;62088;50.240;2.696;2023-04-16T00:58:43;7.00;78.20
73777;DHT22;62088;50.240;2.696;2023-04-16T01:01:11;7.00;78.20
73777;DHT22;62088;50.240;2.696;2023-04-16T01:03:44;7.00;78.20
73777;DHT22;62088;50.240;2.696;2023-04-16T01:06:11;7.10;78.20
73777;DHT22;62088;50.240;2.696;2023-04-16T01:08:39;7.00;78.20
73777;DHT22;62088;50.240;2.696;2023-04-16T01:11:06;7.00;78.20
73777;DHT22;62088;50.240;2.696;2023-04-16T01:13:34;7.00;78.20
73777;DHT22;62088;50.240;2.696;2023-04-16T01:16:06;7.00;78.20
73777;DHT22;62088;50.240;2.696;2023-04-16T01:18:34;7.00;78.10
73777;DHT22;62088;50.240;2.696;2023-04-16T01:21:02;7.00;78.20
73777;DHT22;62088;50.240;2.696;2023-04-16T01:23:30;7.00;78.20
73777;DHT22;62088;50.240;2.696;2023-04-16T01:25:57;7.00;78.20
73777;DHT22;62088;50.240;2.696;2023-04-16T01:28:24;7.00;78.20
73777;DHT22;62088;50.240;2.696;2023-04-16T01:30:51;7.00;78.20
73777;DHT22;62088;50.240;2.696;2023-04-16T01:33:28;7.00;78.20
73777;DHT22;62088;50.240;2.696;2023-04-16T01:35:55;7.00;78.20
73777;DHT22;62088;50.240;2.696;2023-04-16T01:38:22;7.00;78.20
73777;DHT22;62088;50.240;2.696;2023-04-16T01:40:53;7.00;78.20
73777;DHT22;62088;50.240;2.696;2023-04-16T01:43:21;7.00;78.30
73777;DHT22;62088;50.240;2.696;2023-04-16T01:45:48;7.00;78.40
73777;DHT22;62088;50.240;2.696;2023-04-16T01:48:15;7.00;78.50
73777;DHT22;62088;50.240;2.696;2023-04-16T01:50:42;7.00;78.60
73777;DHT22;62088;50.240;2.696;2023-04-16T01:53:09;7.00;78.70
73777;DHT22;62088;50.240;2.696;2023-04-16T01:55:36;7.00;78.90
73777;DHT22;62088;50.240;2.696;2023-04-16T01:58:03;7.10;79.00
73777;DHT22;62088;50.240;2.696;2023-04-16T02:00:33;7.00;79.10
73777;DHT22;62088;50.240;2.696;2023-04-16T02:03:00;7.10;79.20
73777;DHT22;62088;50.240;2.696;2023-04-16T02:05:28;7.10;79.30
73777;DHT22;62088;50.240;2.696;2023-04-16T02:07:56;7.10;79.30
73777;DHT22;62088;50.240;2.696;2023-04-16T02:10:23;7.20;79.40
73777;DHT22;62088;50.240;2.696;2023-04-16T02:12:50;7.20;79.50
73777;DHT22;62088;50.240;2.696;2023-04-16T02:15:17;7.20;79.60
73777;DHT22;62088;50.240;2.696;2023-04-16T02:17:45;7.20;79.70
73777;DHT22;62088;50.240;2.696;2023-04-16T02:20:13;7.30;79.80
73777;DHT22;62088;50.240;2.696;2023-04-16T02:22:49;7.30;79.90
73777;DHT22;62088;50.240;2.696;2023-04-16T02:25:18;7.30;79.90
73777;DHT22;62088;50.240;2.696;2023-04-16T02:27:46;7.40;80.00
73777;DHT22;62088;50.240;2.696;2023-04-16T02:30:37;7.40;80.10
73777;DHT22;62088;50.240;2.696;2023-04-16T02:33:06;7.40;80.10
73777;DHT22;62088;50.240;2.696;2023-04-16T02:35:35;7.40;80.20
73777;DHT22;62088;50.240;2.696;2023-04-16T02:38:04;7.40;80.10
73777;DHT22;62088;50.240;2.696;2023-04-16T02:40:33;7.50;80.20
73777;DHT22;62088;50.240;2.696;2023-04-16T02:43:00;7.40;80.20
73777;DHT22;62088;50.240;2.696;2023-04-16T02:45:27;7.40;80.20
73777;DHT22;62088;50.240;2.696;2023-04-16T02:47:57;7.50;80.30
73777;DHT22;62088;50.240;2.696;2023-04-16T02:50:25;7.50;80.40
73777;DHT22;62088;50.240;2.696;2023-04-16T02:52:52;7.50;80.40
73777;DHT22;62088;50.240;2.696;2023-04-16T02:55:19;7.50;80.40
73777;DHT22;62088;50.240;2.696;2023-04-16T02:57:46;7.60;80.50
73777;DHT22;62088;50.240;2.696;2023-04-16T03:00:14;7.60;80.50
73777;DHT22;62088;50.240;2.696;2023-04-16T03:02:41;7.60;80.50
73777;DHT22;62088;50.240;2.696;2023-04-16T03:05:09;7.60;80.50
73777;DHT22;62088;50.240;2.696;2023-04-16T03:07:38;7.60;80.60
73777;DHT22;62088;50.240;2.696;2023-04-16T03:10:06;7.60;80.60
73777;DHT22;62088;50.240;2.696;2023-04-16T03:12:34;7.60;80.60
73777;DHT22;62088;50.240;2.696;2023-04-16T03:15:05;7.60;80.60
73777;DHT22;62088;50.240;2.696;2023-04-16T03:17:33;7.70;80.60
73777;DHT22;62088;50.240;2.696;2023-04-16T03:20:00;7.60;80.50
73777;DHT22;62088;50.240;2.696;2023-04-16T03:22:27;7.60;80.40
73777;DHT22;62088;50.240;2.696;2023-04-16T03:24:54;7.60;80.40
73777;DHT22;62088;50.240;2.696;2023-04-16T03:27:21;7.60;80.30
73777;DHT22;62088;50.240;2.696;2023-04-16T03:29:49;7.60;80.20
73777;DHT22;62088;50.240;2.696;2023-04-16T03:32:16;7.60;80.00
73777;DHT22;62088;50.240;2.696;2023-04-16T03:34:44;7.60;79.90
73777;DHT22;62088;50.240;2.696;2023-04-16T03:37:11;7.50;79.70
73777;DHT22;62088;50.240;2.696;2023-04-16T03:39:38;7.50;79.60
73777;DHT22;62088;50.240;2.696;2023-04-16T03:42:05;7.50;79.40
73777;DHT22;62088;50.240;2.696;2023-04-16T03:44:33;7.40;79.30
73777;DHT22;62088;50.240;2.696;2023-04-16T03:47:01;7.40;79.30
73777;DHT22;62088;50.240;2.696;2023-04-16T03:49:28;7.40;79.20
73777;DHT22;62088;50.240;2.696;2023-04-16T03:51:56;7.40;79.10
73777;DHT22;62088;50.240;2.696;2023-04-16T03:54:24;7.40;79.10
73777;DHT22;62088;50.240;2.696;2023-04-16T03:57:03;7.40;79.10
73777;DHT22;62088;50.240;2.696;2023-04-16T03:59:30;7.40;79.10
73777;DHT22;62088;50.240;2.696;2023-04-16T04:01:58;7.30;79.20
73777;DHT22;62088;50.240;2.696;2023-04-16T04:04:25;7.30;79.30
73777;DHT22;62088;50.240;2.696;2023-04-16T04:06:53;7.30;79.40
73777;DHT22;62088;50.240;2.696;2023-04-16T04:09:21;7.30;79.50
73777;DHT22;62088;50.240;2.696;2023-04-16T04:11:49;7.30;79.60
73777;DHT22;62088;50.240;2.696;2023-04-16T04:14:16;7.30;79.70
73777;DHT22;62088;50.240;2.696;2023-04-16T04:16:43;7.30;79.80
73777;DHT22;62088;50.240;2.696;2023-04-16T04:19:10;7.30;79.90
73777;DHT22;62088;50.240;2.696;2023-04-16T04:21:38;7.30;80.00
73777;DHT22;62088;50.240;2.696;2023-04-16T04:24:05;7.30;80.10
73777;DHT22;62088;50.240;2.696;2023-04-16T04:26:33;7.30;80.20
73777;DHT22;62088;50.240;2.696;2023-04-16T04:29:00;7.30;80.30
73777;DHT22;62088;50.240;2.696;2023-04-16T04:31:28;7.30;80.40
73777;DHT22;62088;50.240;2.696;2023-04-16T04:33:55;7.30;80.40
73777;DHT22;62088;50.240;2.696;2023-04-16T04:36:22;7.40;80.40
73777;DHT22;62088;50.240;2.696;2023-04-16T04:38:50;7.30;80.50
73777;DHT22;62088;50.240;2.696;2023-04-16T04:41:18;7.40;80.60
73777;DHT22;62088;50.240;2.696;2023-04-16T04:43:46;7.40;80.60
73777;DHT22;62088;50.240;2.696;2023-04-16T04:46:13;7.40;80.60
73777;DHT22;62088;50.240;2.696;2023-04-16T04:48:40;7.40;80.60
73777;DHT22;62088;50.240;2.696;2023-04-16T04:51:07;7.40;80.60
73777;DHT22;62088;50.240;2.696;2023-04-16T04:53:35;7.40;80.70
73777;DHT22;62088;50.240;2.696;2023-04-16T04:56:04;7.40;80.60
73777;DHT22;62088;50.240;2.696;2023-04-16T04:58:40;7.40;80.60
73777;DHT22;62088;50.240;2.696;2023-04-16T05:01:07;7.40;80.60
73777;DHT22;62088;50.240;2.696;2023-04-16T05:03:34;7.40;80.60
73777;DHT22;62088;50.240;2.696;2023-04-16T05:06:01;7.40;80.60
73777;DHT22;62088;50.240;2.696;2023-04-16T05:08:29;7.40;80.60
73777;DHT22;62088;50.240;2.696;2023-04-16T05:10:56;7.40;80.60
73777;DHT22;62088;50.240;2.696;2023-04-16T05:13:23;7.40;80.50
73777;DHT22;62088;50.240;2.696;2023-04-16T05:15:50;7.40;80.50
73777;DHT22;62088;50.240;2.696;2023-04-16T05:18:17;7.40;80.50
73777;DHT22;62088;50.240;2.696;2023-04-16T05:20:44;7.40;80.50
73777;DHT22;62088;50.240;2.696;2023-04-16T05:23:11;7.40;80.50
73777;DHT22;62088;50.240;2.696;2023-04-16T05:25:38;7.40;80.40
73777;DHT22;62088;50.240;2.696;2023-04-16T05:28:06;7.40;80.40
73777;DHT22;62088;50.240;2.696;2023-04-16T05:30:33;7.40;80.30
73777;DHT22;62088;50.240;2.696;2023-04-16T05:33:00;7.40;80.30
73777;DHT22;62088;50.240;2.696;2023-04-16T05:35:27;7.40;80.20
73777;DHT22;62088;50.240;2.696;2023-04-16T05:37:54;7.40;80.20
73777;DHT22;62088;50.240;2.696;2023-04-16T05:40:21;7.40;80.20
73777;DHT22;62088;50.240;2.696;2023-04-16T05:42:48;7.40;80.20
73777;DHT22;62088;50.240;2.696;2023-04-16T05:45:15;7.40;80.20
73777;DHT22;62088;50.240;2.696;2023-04-16T05:47:42;7.40;80.20
73777;DHT22;62088;50.240;2.696;2023-04-16T05:50:10;7.40;80.20
73777;DHT22;62088;50.240;2.696;2023-04-16T05:52:37;7.40;80.20
73777;DHT22;62088;50.240;2.696;2023-04-16T05:55:04;7.40;80.20
73777;DHT22;62088;50.240;2.696;2023-04-16T05:57:32;7.40;80.20
73777;DHT22;62088;50.240;2.696;2023-04-16T05:59:59;7.40;80.30
73777;DHT22;62088;50.240;2.696;2023-04-16T06:02:26;7.40;80.40
73777;DHT22;62088;50.240;2.696;2023-04-16T06:04:53;7.40;80.40
73777;DHT22;62088;50.240;2.696;2023-04-16T06:07:20;7.40;80.50
73777;DHT22;62088;50.240;2.696;2023-04-16T06:09:48;7.40;80.60
73777;DHT22;62088;50.240;2.696;2023-04-16T06:12:15;7.40;80.60
73777;DHT22;62088;50.240;2.696;2023-04-16T06:14:42;7.40;80.70
73777;DHT22;62088;50.240;2.696;2023-04-16T06:17:09;7.50;80.80
73777;DHT22;62088;50.240;2.696;2023-04-16T06:19:36;7.50;80.80
73777;DHT22;62088;50.240;2.696;2023-04-16T06:22:03;7.50;80.80
73777;DHT22;62088;50.240;2.696;2023-04-16T06:24:33;7.50;80.80
73777;DHT22;62088;50.240;2.696;2023-04-16T06:27:01;7.60;80.90
73777;DHT22;62088;50.240;2.696;2023-04-16T06:29:28;7.50;80.90
73777;DHT22;62088;50.240;2.696;2023-04-16T06:32:07;7.60;81.00
73777;DHT22;62088;50.240;2.696;2023-04-16T06:34:35;7.60;81.10
73777;DHT22;62088;50.240;2.696;2023-04-16T06:37:02;7.60;81.20
73777;DHT22;62088;50.240;2.696;2023-04-16T06:39:29;7.70;81.30
73777;DHT22;62088;50.240;2.696;2023-04-16T06:41:56;7.70;81.40
73777;DHT22;62088;50.240;2.696;2023-04-16T06:44:23;7.80;81.40
73777;DHT22;62088;50.240;2.696;2023-04-16T06:46:50;7.80;81.50
73777;DHT22;62088;50.240;2.696;2023-04-16T06:49:17;7.80;81.60
73777;DHT22;62088;50.240;2.696;2023-04-16T06:51:44;7.90;81.70
73777;DHT22;62088;50.240;2.696;2023-04-16T06:54:11;7.90;81.70
73777;DHT22;62088;50.240;2.696;2023-04-16T06:56:38;7.90;81.70
73777;DHT22;62088;50.240;2.696;2023-04-16T06:59:06;8.00;81.70
73777;DHT22;62088;50.240;2.696;2023-04-16T07:01:33;8.00;81.80
73777;DHT22;62088;50.240;2.696;2023-04-16T07:04:00;8.00;81.80
73777;DHT22;62088;50.240;2.696;2023-04-16T07:06:28;8.10;81.80
73777;DHT22;62088;50.240;2.696;2023-04-16T07:08:55;8.20;81.80
73777;DHT22;62088;50.240;2.696;2023-04-16T07:11:22;8.20;81.90
73777;DHT22;62088;50.240;2.696;2023-04-16T07:13:49;8.20;81.90
73777;DHT22;62088;50.240;2.696;2023-04-16T07:16:17;8.30;82.00
73777;DHT22;62088;50.240;2.696;2023-04-16T07:18:44;8.30;82.00
73777;DHT22;62088;50.240;2.696;2023-04-16T07:21:11;8.40;82.00
73777;DHT22;62088;50.240;2.696;2023-04-16T07:23:38;8.40;82.00
73777;DHT22;62088;50.240;2.696;2023-04-16T07:26:05;8.50;82.00
73777;DHT22;62088;50.240;2.696;2023-04-16T07:28:32;8.50;81.90
73777;DHT22;62088;50.240;2.696;2023-04-16T07:30:59;8.60;81.80
73777;DHT22;62088;50.240;2.696;2023-04-16T07:33:26;8.60;81.80
73777;DHT22;62088;50.240;2.696;2023-04-16T07:35:53;8.70;81.80
73777;DHT22;62088;50.240;2.696;2023-04-16T07:38:20;8.70;81.70
73777;DHT22;62088;50.240;2.696;2023-04-16T07:40:47;8.80;81.60
73777;DHT22;62088;50.240;2.696;2023-04-16T07:43:14;8.80;81.60
73777;DHT22;62088;50.240;2.696;2023-04-16T07:45:42;8.80;81.50
73777;DHT22;62088;50.240;2.696;2023-04-16T07:48:09;8.90;81.50
73777;DHT22;62088;50.240;2.696;2023-04-16T07:50:36;8.90;81.40
73777;DHT22;62088;50.240;2.696;2023-04-16T07:53:03;9.00;81.40
73777;DHT22;62088;50.240;2.696;2023-04-16T07:55:33;9.00;81.40
73777;DHT22;62088;50.240;2.696;2023-04-16T07:58:00;9.20;81.50
73777;DHT22;62088;50.240;2.696;2023-04-16T08:00:28;9.20;81.50
73777;DHT22;62088;50.240;2.696;2023-04-16T08:02:55;9.30;81.30
73777;DHT22;62088;50.240;2.696;2023-04-16T08:05:23;9.40;81.20
73777;DHT22;62088;50.240;2.696;2023-04-16T08:07:50;9.50;81.10
73777;DHT22;62088;50.240;2.696;2023-04-16T08:10:17;9.60;80.90
73777;DHT22;62088;50.240;2.696;2023-04-16T08:12:44;9.70;80.50
73777;DHT22;62088;50.240;2.696;2023-04-16T08:15:11;9.70;80.20
73777;DHT22;62088;50.240;2.696;2023-04-16T08:17:38;9.90;80.10
73777;DHT22;62088;50.240;2.696;2023-04-16T08:20:05;9.90;79.90
73777;DHT22;62088;50.240;2.696;2023-04-16T08:22:32;10.00;79.70
73777;DHT22;62088;50.240;2.696;2023-04-16T08:25:00;10.10;79.50
73777;DHT22;62088;50.240;2.696;2023-04-16T08:27:27;10.20;79.30
73777;DHT22;62088;50.240;2.696;2023-04-16T08:29:54;10.30;79.10
73777;DHT22;62088;50.240;2.696;2023-04-16T08:32:21;10.40;79.00
73777;DHT22;62088;50.240;2.696;2023-04-16T08:34:48;10.40;79.00
73777;DHT22;62088;50.240;2.696;2023-04-16T08:37:16;10.60;78.80
73777;DHT22;62088;50.240;2.696;2023-04-16T08:39:43;10.80;78.70
73777;DHT22;62088;50.240;2.696;2023-04-16T08:42:22;10.90;78.40
73777;DHT22;62088;50.240;2.696;2023-04-16T08:44:52;11.00;77.20
73777;DHT22;62088;50.240;2.696;2023-04-16T08:47:23;11.10;76.50
73777;DHT22;62088;50.240;2.696;2023-04-16T08:49:54;11.20;76.20
73777;DHT22;62088;50.240;2.696;2023-04-16T08:52:24;11.40;75.60
73777;DHT22;62088;50.240;2.696;2023-04-16T08:57:43;11.50;74.40
73777;DHT22;62088;50.240;2.696;2023-04-16T09:00:13;11.60;74.20
73777;DHT22;62088;50.240;2.696;2023-04-16T09:02:41;11.70;74.30
73777;DHT22;62088;50.240;2.696;2023-04-16T09:05:10;11.80;74.10
73777;DHT22;62088;50.240;2.696;2023-04-16T09:07:40;11.90;73.80
73777;DHT22;62088;50.240;2.696;2023-04-16T09:10:08;11.90;73.20
73777;DHT22;62088;50.240;2.696;2023-04-16T09:12:35;12.10;72.80
73777;DHT22;62088;50.240;2.696;2023-04-16T09:15:04;12.10;72.40
73777;DHT22;62088;50.240;2.696;2023-04-16T09:17:33;12.30;72.30
73777;DHT22;62088;50.240;2.696;2023-04-16T09:20:00;12.40;72.40
73777;DHT22;62088;50.240;2.696;2023-04-16T09:22:28;12.50;72.10
73777;DHT22;62088;50.240;2.696;2023-04-16T09:24:54;12.60;72.10
73777;DHT22;62088;50.240;2.696;2023-04-16T09:27:22;12.70;71.70
73777;DHT22;62088;50.240;2.696;2023-04-16T09:29:51;12.80;71.00
73777;DHT22;62088;50.240;2.696;2023-04-16T09:32:24;12.80;70.50
73777;DHT22;62088;50.240;2.696;2023-04-16T09:34:59;12.90;69.90
73777;DHT22;62088;50.240;2.696;2023-04-16T09:37:28;13.00;69.50
73777;DHT22;62088;50.240;2.696;2023-04-16T09:40:00;13.00;68.80
73777;DHT22;62088;50.240;2.696;2023-04-16T09:42:29;13.10;68.60
73777;DHT22;62088;50.240;2.696;2023-04-16T09:44:58;13.20;68.70
73777;DHT22;62088;50.240;2.696;2023-04-16T09:47:41;13.30;69.20
73777;DHT22;62088;50.240;2.696;2023-04-16T09:50:13;13.40;69.20
73777;DHT22;62088;50.240;2.696;2023-04-16T09:52:46;13.40;68.60
73777;DHT22;62088;50.240;2.696;2023-04-16T09:55:13;13.50;68.20
73777;DHT22;62088;50.240;2.696;2023-04-16T09:57:41;13.60;67.70
73777;DHT22;62088;50.240;2.696;2023-04-16T10:00:09;13.70;67.20
73777;DHT22;62088;50.240;2.696;2023-04-16T10:02:39;13.70;66.00
73777;DHT22;62088;50.240;2.696;2023-04-16T10:05:08;13.80;65.50
73777;DHT22;62088;50.240;2.696;2023-04-16T10:07:36;13.90;65.90
73777;DHT22;62088;50.240;2.696;2023-04-16T10:10:03;13.90;66.30
73777;DHT22;62088;50.240;2.696;2023-04-16T10:12:31;14.00;66.60
73777;DHT22;62088;50.240;2.696;2023-04-16T10:15:01;14.10;66.80
73777;DHT22;62088;50.240;2.696;2023-04-16T10:17:29;14.20;66.80
73777;DHT22;62088;50.240;2.696;2023-04-16T10:19:57;14.40;66.90
73777;DHT22;62088;50.240;2.696;2023-04-16T10:22:25;14.50;66.80
73777;DHT22;62088;50.240;2.696;2023-04-16T10:24:52;14.60;66.10
73777;DHT22;62088;50.240;2.696;2023-04-16T10:27:20;14.70;65.70
73777;DHT22;62088;50.240;2.696;2023-04-16T10:29:47;14.80;65.10
73777;DHT22;62088;50.240;2.696;2023-04-16T10:32:16;14.90;64.70
73777;DHT22;62088;50.240;2.696;2023-04-16T10:34:44;14.90;64.10
73777;DHT22;62088;50.240;2.696;2023-04-16T10:37:11;14.90;63.20
73777;DHT22;62088;50.240;2.696;2023-04-16T10:39:38;15.00;62.90
73777;DHT22;62088;50.240;2.696;2023-04-16T10:42:10;15.10;62.80
73777;DHT22;62088;50.240;2.696;2023-04-16T10:44:40;15.10;62.70
73777;DHT22;62088;50.240;2.696;2023-04-16T10:47:12;15.30;63.20
73777;DHT22;62088;50.240;2.696;2023-04-16T10:49:40;15.30;62.50
73777;DHT22;62088;50.240;2.696;2023-04-16T10:52:12;15.40;62.30
73777;DHT22;62088;50.240;2.696;2023-04-16T10:54:42;15.50;62.70
73777;DHT22;62088;50.240;2.696;2023-04-16T10:57:15;15.60;62.40
73777;DHT22;62088;50.240;2.696;2023-04-16T10:59:44;15.70;62.80
73777;DHT22;62088;50.240;2.696;2023-04-16T11:02:16;15.80;62.60
73777;DHT22;62088;50.240;2.696;2023-04-16T11:04:45;15.90;62.00
73777;DHT22;62088;50.240;2.696;2023-04-16T11:07:17;15.90;61.80
73777;DHT22;62088;50.240;2.696;2023-04-16T11:12:23;16.00;60.80
73777;DHT22;62088;50.240;2.696;2023-04-16T11:15:13;16.10;60.50
73777;DHT22;62088;50.240;2.696;2023-04-16T11:17:49;16.30;60.50
73777;DHT22;62088;50.240;2.696;2023-04-16T11:20:22;16.40;60.10
73777;DHT22;62088;50.240;2.696;2023-04-16T11:22:51;16.50;58.40
73777;DHT22;62088;50.240;2.696;2023-04-16T11:25:29;16.50;58.20
73777;DHT22;62088;50.240;2.696;2023-04-16T11:27:57;16.60;58.00
73777;DHT22;62088;50.240;2.696;2023-04-16T11:30:33;16.70;57.90
73777;DHT22;62088;50.240;2.696;2023-04-16T11:33:07;16.80;57.90
73777;DHT22;62088;50.240;2.696;2023-04-16T11:35:35;16.80;57.20
73777;DHT22;62088;50.240;2.696;2023-04-16T11:38:02;16.90;57.20
73777;DHT22;62088;50.240;2.696;2023-04-16T11:40:32;17.00;57.70
73777;DHT22;62088;50.240;2.696;2023-04-16T11:43:13;17.00;57.40
73777;DHT22;62088;50.240;2.696;2023-04-16T11:45:57;17.10;56.70
73777;DHT22;62088;50.240;2.696;2023-04-16T11:48:25;17.10;56.20
73777;DHT22;62088;50.240;2.696;2023-04-16T11:51:11;17.20;56.30
73777;DHT22;62088;50.240;2.696;2023-04-16T11:53:48;17.30;55.90
73777;DHT22;62088;50.240;2.696;2023-04-16T11:56:27;17.40;56.00
73777;DHT22;62088;50.240;2.696;2023-04-16T11:59:11;17.40;55.40
73777;DHT22;62088;50.240;2.696;2023-04-16T12:01:40;17.40;54.50
73777;DHT22;62088;50.240;2.696;2023-04-16T12:04:07;17.50;54.00
73777;DHT22;62088;50.240;2.696;2023-04-16T12:06:35;17.60;54.40
73777;DHT22;62088;50.240;2.696;2023-04-16T12:09:24;17.60;54.60
73777;DHT22;62088;50.240;2.696;2023-04-16T12:11:52;17.70;53.50
73777;DHT22;62088;50.240;2.696;2023-04-16T12:14:19;17.70;53.20
73777;DHT22;62088;50.240;2.696;2023-04-16T12:16:47;17.70;53.40
73777;DHT22;62088;50.240;2.696;2023-04-16T12:19:14;17.80;53.30
73777;DHT22;62088;50.240;2.696;2023-04-16T12:21:45;17.90;52.70
73777;DHT22;62088;50.240;2.696;2023-04-16T12:24:17;17.90;52.80
73777;DHT22;62088;50.240;2.696;2023-04-16T12:26:53;18.00;52.70
73777;DHT22;62088;50.240;2.696;2023-04-16T12:29:29;18.00;52.60
73777;DHT22;62088;50.240;2.696;2023-04-16T12:31:56;18.10;52.40
73777;DHT22;62088;50.240;2.696;2023-04-16T12:34:23;18.10;52.30
73777;DHT22;62088;50.240;2.696;2023-04-16T12:37:10;18.20;51.80
73777;DHT22;62088;50.240;2.696;2023-04-16T12:39:38;18.30;51.50
73777;DHT22;62088;50.240;2.696;2023-04-16T12:42:05;18.30;51.00
73777;DHT22;62088;50.240;2.696;2023-04-16T12:44:35;18.30;51.50
73777;DHT22;62088;50.240;2.696;2023-04-16T12:47:02;18.40;51.30
73777;DHT22;62088;50.240;2.696;2023-04-16T12:49:31;18.40;51.10
73777;DHT22;62088;50.240;2.696;2023-04-16T12:51:58;18.40;50.90
73777;DHT22;62088;50.240;2.696;2023-04-16T12:54:25;18.50;51.20
73777;DHT22;62088;50.240;2.696;2023-04-16T12:56:55;18.50;50.60
73777;DHT22;62088;50.240;2.696;2023-04-16T12:59:23;18.50;50.30
73777;DHT22;62088;50.240;2.696;2023-04-16T13:01:50;18.50;50.00
73777;DHT22;62088;50.240;2.696;2023-04-16T13:04:17;18.50;50.10
73777;DHT22;62088;50.240;2.696;2023-04-16T13:06:44;18.50;50.30
73777;DHT22;62088;50.240;2.696;2023-04-16T13:09:13;18.60;50.30
73777;DHT22;62088;50.240;2.696;2023-04-16T13:11:40;18.60;50.20
73777;DHT22;62088;50.240;2.696;2023-04-16T13:14:09;18.60;49.60
73777;DHT22;62088;50.240;2.696;2023-04-16T13:16:36;18.70;48.80
73777;DHT22;62088;50.240;2.696;2023-04-16T13:19:04;18.70;48.20
73777;DHT22;62088;50.240;2.696;2023-04-16T13:21:32;18.80;48.90
73777;DHT22;62088;50.240;2.696;2023-04-16T13:24:00;18.80;49.50
73777;DHT22;62088;50.240;2.696;2023-04-16T13:26:27;18.80;49.00
73777;DHT22;62088;50.240;2.696;2023-04-16T13:28:54;18.90;49.10
73777;DHT22;62088;50.240;2.696;2023-04-16T13:31:21;18.90;49.00
73777;DHT22;62088;50.240;2.696;2023-04-16T13:33:49;18.90;48.40
73777;DHT22;62088;50.240;2.696;2023-04-16T13:36:16;18.90;47.60
73777;DHT22;62088;50.240;2.696;2023-04-16T13:38:43;18.90;47.40
73777;DHT22;62088;50.240;2.696;2023-04-16T13:41:10;18.90;47.40
73777;DHT22;62088;50.240;2.696;2023-04-16T13:43:37;18.90;47.60
73777;DHT22;62088;50.240;2.696;2023-04-16T13:46:06;19.00;47.80
73777;DHT22;62088;50.240;2.696;2023-04-16T13:48:33;19.00;47.50
73777;DHT22;62088;50.240;2.696;2023-04-16T13:51:01;19.00;47.60
73777;DHT22;62088;50.240;2.696;2023-04-16T13:53:28;19.10;47.00
73777;DHT22;62088;50.240;2.696;2023-04-16T13:55:55;19.10;46.30
73777;DHT22;62088;50.240;2.696;2023-04-16T13:58:22;19.10;46.50
73777;DHT22;62088;50.240;2.696;2023-04-16T14:00:49;19.10;46.50
73777;DHT22;62088;50.240;2.696;2023-04-16T14:03:17;19.10;46.10
73777;DHT22;62088;50.240;2.696;2023-04-16T14:05:44;19.10;46.10
73777;DHT22;62088;50.240;2.696;2023-04-16T14:08:11;19.10;46.30
73777;DHT22;62088;50.240;2.696;2023-04-16T14:10:40;19.10;46.30
73777;DHT22;62088;50.240;2.696;2023-04-16T14:13:07;19.00;45.40
73777;DHT22;62088;50.240;2.696;2023-04-16T14:15:34;19.00;45.40
73777;DHT22;62088;50.240;2.696;2023-04-16T14:18:03;18.90;45.60
73777;DHT22;62088;50.240;2.696;2023-04-16T14:20:30;18.90;45.50
73777;DHT22;62088;50.240;2.696;2023-04-16T14:22:57;18.90;45.10
73777;DHT22;62088;50.240;2.696;2023-04-16T14:25:24;18.90;45.40
73777;DHT22;62088;50.240;2.696;2023-04-16T14:27:52;18.90;45.70
73777;DHT22;62088;50.240;2.696;2023-04-16T14:30:19;19.00;45.80
73777;DHT22;62088;50.240;2.696;2023-04-16T14:32:46;19.10;45.60
73777;DHT22;62088;50.240;2.696;2023-04-16T14:35:13;19.10;45.10
73777;DHT22;62088;50.240;2.696;2023-04-16T14:37:40;19.00;44.30
73777;DHT22;62088;50.240;2.696;2023-04-16T14:40:07;19.10;44.50
73777;DHT22;62088;50.240;2.696;2023-04-16T14:42:36;19.00;44.20
73777;DHT22;62088;50.240;2.696;2023-04-16T14:45:03;19.00;44.10
73777;DHT22;62088;50.240;2.696;2023-04-16T14:47:33;19.00;43.80
73777;DHT22;62088;50.240;2.696;2023-04-16T14:50:01;19.00;44.10
73777;DHT22;62088;50.240;2.696;2023-04-16T14:52:31;19.00;44.20
73777;DHT22;62088;50.240;2.696;2023-04-16T14:54:58;19.00;43.90
73777;DHT22;62088;50.240;2.696;2023-04-16T14:57:25;19.00;44.50
73777;DHT22;62088;50.240;2.696;2023-04-16T14:59:52;19.10;44.90
73777;DHT22;62088;50.240;2.696;2023-04-16T15:02:20;19.10;44.90
73777;DHT22;62088;50.240;2.696;2023-04-16T15:04:47;19.10;44.90
73777;DHT22;62088;50.240;2.696;2023-04-16T15:07:14;19.20;44.90
73777;DHT22;62088;50.240;2.696;2023-04-16T15:09:42;19.20;44.80
73777;DHT22;62088;50.240;2.696;2023-04-16T15:12:09;19.30;44.80
73777;DHT22;62088;50.240;2.696;2023-04-16T15:14:36;19.30;44.00
73777;DHT22;62088;50.240;2.696;2023-04-16T15:17:03;19.30;43.50
73777;DHT22;62088;50.240;2.696;2023-04-16T15:19:30;19.30;43.60
73777;DHT22;62088;50.240;2.696;2023-04-16T15:21:57;19.30;44.00
73777;DHT22;62088;50.240;2.696;2023-04-16T15:24:24;19.30;43.80
73777;DHT22;62088;50.240;2.696;2023-04-16T15:26:51;19.20;43.60
73777;DHT22;62088;50.240;2.696;2023-04-16T15:29:18;19.20;43.50
73777;DHT22;62088;50.240;2.696;2023-04-16T15:31:46;19.20;43.80
73777;DHT22;62088;50.240;2.696;2023-04-16T15:34:13;19.10;43.50
73777;DHT22;62088;50.240;2.696;2023-04-16T15:36:41;19.10;43.60
73777;DHT22;62088;50.240;2.696;2023-04-16T15:39:08;19.10;43.60
73777;DHT22;62088;50.240;2.696;2023-04-16T15:41:36;19.00;43.70
73777;DHT22;62088;50.240;2.696;2023-04-16T15:44:25;19.00;43.90
73777;DHT22;62088;50.240;2.696;2023-04-16T15:46:52;18.90;44.10
73777;DHT22;62088;50.240;2.696;2023-04-16T15:49:19;18.90;44.30
73777;DHT22;62088;50.240;2.696;2023-04-16T15:51:46;18.90;44.30
73777;DHT22;62088;50.240;2.696;2023-04-16T15:54:13;18.90;44.20